createdAt,value
2023-04-05T00:01:01.258Z,-0.71
2023-04-05T00:05:58.410Z,-0.85
2023-04-05T00:10:54.771Z,-0.91
2023-04-05T00:15:51.094Z,-0.79
2023-04-05T00:20:48.750Z,-0.86
2023-04-05T00:25:45.214Z,-0.84
2023-04-05T00:30:41.750Z,-1.06
2023-04-05T00:35:38.330Z,-1.09
2023-04-05T00:40:34.833Z,-0.87
2023-04-05T00:45:31.483Z,-0.70
2023-04-05T00:50:30.784Z,-0.85
2023-04-05T00:55:27.112Z,-0.85
2023-04-05T01:00:23.461Z,-0.77
2023-04-05T01:05:23.947Z,-0.77
2023-04-05T01:10:21.992Z,-0.66
2023-04-05T01:15:18.902Z,-0.80
2023-04-05T01:20:15.426Z,-0.85
2023-04-05T01:25:42.719Z,-0.84
2023-04-05T01:30:39.917Z,-0.77
2023-04-05T01:35:39.531Z,-0.82
2023-04-05T01:40:37.251Z,-0.93
2023-04-05T01:45:33.513Z,-0.98
2023-04-05T01:50:29.775Z,-1.02
2023-04-05T01:55:26.052Z,-1.10
2023-04-05T02:00:22.982Z,-1.21
2023-04-05T02:05:19.294Z,-1.31
2023-04-05T02:10:15.889Z,-1.31
2023-04-05T02:15:12.343Z,-1.40
2023-04-05T02:20:10.568Z,-1.52
2023-04-05T02:25:08.954Z,-1.51
2023-04-05T02:30:05.712Z,-1.32
2023-04-05T02:35:02.589Z,-1.39
2023-04-05T02:39:58.832Z,-1.42
2023-04-05T02:44:55.134Z,-1.29
2023-04-05T02:49:51.400Z,-1.20
2023-04-05T02:54:47.644Z,-1.25
2023-04-05T02:59:44.100Z,-1.36
2023-04-05T03:04:40.895Z,-1.48
2023-04-05T03:09:38.404Z,-1.53
2023-04-05T03:14:34.765Z,-1.50
2023-04-05T03:19:31.075Z,-1.56
2023-04-05T03:24:27.338Z,-1.64
2023-04-05T03:29:23.605Z,-1.66
2023-04-05T03:34:19.900Z,-1.61
2023-04-05T03:39:16.170Z,-1.54
2023-04-05T03:44:12.542Z,-1.55
2023-04-05T03:49:08.820Z,-1.54
2023-04-05T03:54:05.226Z,-1.44
2023-04-05T03:59:01.966Z,-1.42
2023-04-05T04:04:00.254Z,-1.35
2023-04-05T04:08:57.086Z,-1.44
2023-04-05T04:13:53.961Z,-1.48
2023-04-05T04:18:54.133Z,-1.50
2023-04-05T04:23:51.816Z,-1.53
2023-04-05T04:28:48.777Z,-1.48
2023-04-05T04:33:45.007Z,-1.54
2023-04-05T04:38:42.890Z,-1.67
2023-04-05T04:43:44.143Z,-1.72
2023-04-05T04:48:43.350Z,-1.62
2023-04-05T04:53:39.587Z,-1.62
2023-04-05T04:58:36.036Z,-1.71
2023-04-05T05:03:34.349Z,-1.77
2023-04-05T05:08:30.792Z,-1.88
2023-04-05T05:13:27.151Z,-1.87
2023-04-05T05:18:23.768Z,-1.58
2023-04-05T05:23:21.218Z,-0.96
2023-04-05T05:28:17.561Z,-0.34
2023-04-05T05:33:13.853Z,0.54
2023-04-05T05:38:11.932Z,1.04
2023-04-05T05:43:12.873Z,1.15
2023-04-05T05:48:09.428Z,1.47
2023-04-05T05:53:05.942Z,1.75
2023-04-05T05:58:02.186Z,1.60
2023-04-05T06:02:59.215Z,1.68
2023-04-05T06:07:55.804Z,2.01
2023-04-05T06:12:52.264Z,1.87
2023-04-05T06:17:48.620Z,1.70
2023-04-05T06:22:44.958Z,1.44
2023-04-05T06:27:41.343Z,1.43
2023-04-05T06:32:37.743Z,1.23
2023-04-05T06:37:34.042Z,1.14
2023-04-05T06:42:30.419Z,1.16
2023-04-05T06:47:26.719Z,1.36
2023-04-05T06:52:22.970Z,1.59
2023-04-05T06:57:19.286Z,1.85
2023-04-05T07:02:15.516Z,2.13
2023-04-05T07:07:11.919Z,2.69
2023-04-05T07:12:08.656Z,2.88
2023-04-05T07:17:06.092Z,2.98
2023-04-05T07:22:02.428Z,3.12
2023-04-05T07:26:58.676Z,3.57
2023-04-05T07:31:54.970Z,4.29
2023-04-05T07:36:51.241Z,5.03
2023-04-05T07:41:47.485Z,5.42
2023-04-05T07:46:49.124Z,5.94
2023-04-05T07:51:46.374Z,6.09
2023-04-05T07:56:43.060Z,6.36
2023-04-05T08:01:39.976Z,6.53
2023-04-05T08:06:36.812Z,6.54
2023-04-05T08:11:33.334Z,6.76
2023-04-05T08:16:29.788Z,6.94
2023-04-05T08:21:26.620Z,7.05
2023-04-05T08:26:23.013Z,7.34
2023-04-05T08:31:20.901Z,7.64
2023-04-05T08:36:17.580Z,7.71
2023-04-05T08:41:14.886Z,7.71
2023-04-05T08:46:13.426Z,7.84
2023-04-05T08:51:09.857Z,7.95
2023-04-05T08:56:06.898Z,7.64
2023-04-05T09:01:04.696Z,7.73
2023-04-05T09:06:01.448Z,8.15
2023-04-05T09:10:58.218Z,8.44
2023-04-05T09:15:54.637Z,8.04
2023-04-05T09:20:51.172Z,7.78
2023-04-05T09:25:52.522Z,8.14
2023-04-05T09:30:48.972Z,8.54
2023-04-05T09:35:45.298Z,8.60
2023-04-05T09:40:43.648Z,8.29
2023-04-05T09:45:41.667Z,8.09
2023-04-05T09:50:38.172Z,8.14
2023-04-05T09:55:34.586Z,7.98
2023-04-05T10:00:33.653Z,8.71
2023-04-05T10:05:30.012Z,9.14
2023-04-05T10:10:26.348Z,8.55
2023-04-05T10:15:23.298Z,7.97
2023-04-05T10:20:20.413Z,8.47
2023-04-05T10:25:16.683Z,8.96
2023-04-05T10:30:13.115Z,9.53
2023-04-05T10:35:12.731Z,10.00
2023-04-05T10:40:12.870Z,9.84
2023-04-05T10:45:12.261Z,9.03
2023-04-05T10:50:09.199Z,8.74
2023-04-05T10:55:06.004Z,8.66
2023-04-05T11:00:02.501Z,8.04
2023-04-05T11:05:03.181Z,9.33
2023-04-05T11:10:01.714Z,9.84
2023-04-05T11:15:18.039Z,8.88
2023-04-05T11:20:14.344Z,10.01
2023-04-05T11:25:21.760Z,10.93
2023-04-05T11:30:38.004Z,11.28
2023-04-05T11:35:34.619Z,10.55
2023-04-05T11:40:31.969Z,10.48
2023-04-05T11:45:31.866Z,10.69
2023-04-05T11:50:28.670Z,10.46
2023-04-05T11:55:27.792Z,10.53
2023-04-05T12:00:24.109Z,10.12
2023-04-05T12:05:20.453Z,9.85
2023-04-05T12:10:17.260Z,9.69
2023-04-05T12:15:15.136Z,9.70
2023-04-05T12:20:12.711Z,10.26
2023-04-05T12:25:09.291Z,9.81
2023-04-05T12:30:06.500Z,9.47
2023-04-05T12:35:06.012Z,10.38
2023-04-05T12:40:03.092Z,11.01
2023-04-05T12:45:06.597Z,11.33
2023-04-05T12:50:12.948Z,11.70
2023-04-05T12:55:16.141Z,11.73
2023-04-05T13:00:12.647Z,12.23
2023-04-05T13:05:09.342Z,12.18
2023-04-05T13:10:06.003Z,12.09
2023-04-05T13:15:02.304Z,11.25
2023-04-05T13:19:58.567Z,11.65
2023-04-05T13:24:54.937Z,11.38
2023-04-05T13:29:51.659Z,10.86
2023-04-05T13:34:48.794Z,11.08
2023-04-05T13:39:45.337Z,10.47
2023-04-05T13:44:41.741Z,10.40
2023-04-05T13:49:38.353Z,10.58
2023-04-05T13:54:34.818Z,10.54
2023-04-05T13:59:31.277Z,10.15
2023-04-05T14:04:28.777Z,10.20
2023-04-05T14:09:25.270Z,10.33
2023-04-05T14:14:21.617Z,10.91
2023-04-05T14:19:18.392Z,11.35
2023-04-05T14:24:14.686Z,10.26
2023-04-05T14:29:11.088Z,9.75
2023-04-05T14:34:07.394Z,9.96
2023-04-05T14:39:04.284Z,10.34
2023-04-05T14:44:00.958Z,10.25
2023-04-05T14:48:57.299Z,10.18
2023-04-05T14:53:53.609Z,10.16
2023-04-05T14:58:49.925Z,10.13
2023-04-05T15:03:48.351Z,9.91
2023-04-05T15:08:44.757Z,9.86
2023-04-05T15:13:41.169Z,9.97
2023-04-05T15:18:37.674Z,9.71
2023-04-05T15:23:34.265Z,9.69
2023-04-05T15:28:30.528Z,9.59
2023-04-05T15:33:26.870Z,9.67
2023-04-05T15:38:23.151Z,9.60
2023-04-05T15:43:20.801Z,9.58
2023-04-05T15:48:17.204Z,9.59
2023-04-05T15:53:13.506Z,9.83
2023-04-05T15:58:09.777Z,9.95
2023-04-05T16:03:06.363Z,9.84
2023-04-05T16:08:02.772Z,9.76
2023-04-05T16:12:59.059Z,9.46
2023-04-05T16:17:56.097Z,9.78
2023-04-05T16:22:52.718Z,10.17
2023-04-05T16:27:49.027Z,9.78
2023-04-05T16:32:45.387Z,9.67
2023-04-05T16:37:42.811Z,10.38
2023-04-05T16:42:39.268Z,10.62
2023-04-05T16:47:35.755Z,12.99
2023-04-05T16:52:32.066Z,13.66
2023-04-05T16:57:28.347Z,16.79
2023-04-05T17:02:24.649Z,18.07
2023-04-05T17:07:21.158Z,17.40
2023-04-05T17:12:17.477Z,17.67
2023-04-05T17:17:13.755Z,18.30
2023-04-05T17:22:10.054Z,17.08
2023-04-05T17:27:06.462Z,16.15
2023-04-05T17:32:02.894Z,14.45
2023-04-05T17:37:01.289Z,12.89
2023-04-05T17:41:57.582Z,10.58
2023-04-05T17:47:05.513Z,9.17
2023-04-05T17:52:08.465Z,8.16
2023-04-05T17:57:05.504Z,7.32
2023-04-05T18:02:01.865Z,6.93
2023-04-05T18:06:58.184Z,6.59
2023-04-05T18:11:54.448Z,6.32
2023-04-05T18:16:50.925Z,6.16
2023-04-05T18:21:47.368Z,6.01
2023-04-05T18:26:43.728Z,5.78
2023-04-05T18:31:40.148Z,5.59
2023-04-05T18:36:39.534Z,5.41
2023-04-05T18:41:35.819Z,5.29
2023-04-05T18:46:32.165Z,5.10
2023-04-05T18:51:28.572Z,4.91
2023-04-05T18:56:26.390Z,4.48
2023-04-05T19:01:23.565Z,4.31
2023-04-05T19:06:20.286Z,4.07
2023-04-05T19:11:18.464Z,3.80
2023-04-05T19:16:17.294Z,3.70
2023-04-05T19:21:13.999Z,3.84
2023-04-05T19:26:10.903Z,3.44
2023-04-05T19:31:07.908Z,3.36
2023-04-05T19:36:04.414Z,3.25
2023-04-05T19:41:00.824Z,3.06
2023-04-05T19:45:58.144Z,2.76
2023-04-05T19:50:56.474Z,2.65
2023-04-05T19:55:52.977Z,2.55
2023-04-05T20:00:52.781Z,2.34
2023-04-05T20:05:49.182Z,2.15
2023-04-05T20:10:52.019Z,2.27
2023-04-05T20:15:51.296Z,2.34
2023-04-05T20:20:47.773Z,2.30
2023-04-05T20:25:44.586Z,2.13
2023-04-05T20:30:41.095Z,2.11
2023-04-05T20:35:37.549Z,2.07
2023-04-05T20:40:33.907Z,1.99
2023-04-05T20:45:30.167Z,1.87
2023-04-05T20:50:26.424Z,1.71
2023-04-05T20:55:22.824Z,1.60
2023-04-05T21:00:19.551Z,1.58
2023-04-05T21:05:15.836Z,1.53
2023-04-05T21:10:13.268Z,1.65
2023-04-05T21:15:09.658Z,1.57
2023-04-05T21:20:06.217Z,1.47
2023-04-05T21:25:07.934Z,1.37
2023-04-05T21:30:04.520Z,1.27
2023-04-05T21:35:00.988Z,1.20
2023-04-05T21:39:57.284Z,1.03
2023-04-05T21:44:53.578Z,1.03
2023-04-05T21:49:50.071Z,0.99
2023-04-05T21:54:46.490Z,0.90
2023-04-05T21:59:42.808Z,0.81
2023-04-05T22:04:39.543Z,0.78
2023-04-05T22:09:35.852Z,0.80
2023-04-05T22:14:32.300Z,0.73
2023-04-05T22:19:28.660Z,0.64
2023-04-05T22:24:26.103Z,0.60
2023-04-05T22:29:22.838Z,0.52
2023-04-05T22:34:19.103Z,0.54
2023-04-05T22:39:15.564Z,0.64
2023-04-05T22:44:11.927Z,0.58
2023-04-05T22:49:08.717Z,0.62
2023-04-05T22:54:05.246Z,0.66
2023-04-05T22:59:01.842Z,0.68
2023-04-05T23:03:58.148Z,0.87
2023-04-05T23:08:54.424Z,0.98
2023-04-05T23:13:50.967Z,1.09
2023-04-05T23:18:49.100Z,1.13
2023-04-05T23:23:45.373Z,1.22
2023-04-05T23:28:41.713Z,1.13
2023-04-05T23:33:38.043Z,1.23
2023-04-05T23:38:34.304Z,1.41
2023-04-05T23:43:30.729Z,1.54
2023-04-05T23:48:27.295Z,1.55
2023-04-05T23:53:23.679Z,1.64
2023-04-05T23:58:20.474Z,1.62
